Time;durP1;ratioP1;P1;durP2;ratioP2;P2;SDS_P1;SDS_P2;PMS_P1;PMS_P2;Temp;Humidity;BMP_temperature;BMP_pressure;BME280_temperature;BME280_humidity;BME280_pressure;Samples;Min_cycle;Max_cycle;Signal;HPM_P1;HPM_P2
2021/03/06 00:00:15;;;;;;;8.97;4.10;;;1.70;99.90;;;;;;5090596;28;20409;-49
2021/03/06 00:02:40;;;;;;;9.65;4.65;;;0.80;99.90;;;;;;5090729;28;20913;-52
2021/03/06 00:05:08;;;;;;;9.88;4.50;;;3.80;99.90;;;;;;5090942;28;20378;-48
2021/03/06 00:07:33;;;;;;;10.25;4.00;;;0.80;99.90;;;;;;5091184;28;20451;-48
2021/03/06 00:09:59;;;;;;;8.52;3.92;;;0.90;99.90;;;;;;5090443;28;20382;-49
2021/03/06 00:12:25;;;;;;;10.95;4.93;;;0.80;99.90;;;;;;5091395;28;20371;-48
2021/03/06 00:14:50;;;;;;;9.27;4.65;;;3.90;99.90;;;;;;5090464;28;20386;-48
2021/03/06 00:17:16;;;;;;;10.10;4.77;;;3.10;99.90;;;;;;5091341;28;20736;-49
2021/03/06 00:19:42;;;;;;;9.60;4.63;;;0.80;99.90;;;;;;5073095;28;20389;-53
2021/03/06 00:22:08;;;;;;;9.15;4.75;;;0.70;99.90;;;;;;5090640;28;20385;-49
2021/03/06 00:24:33;;;;;;;9.85;4.32;;;0.40;99.90;;;;;;5091369;28;20390;-48
2021/03/06 00:26:59;;;;;;;10.98;4.97;;;3.50;99.90;;;;;;5089959;28;20405;-48
2021/03/06 00:29:25;;;;;;;10.13;4.50;;;0.20;99.90;;;;;;5091049;28;20461;-48
2021/03/06 00:31:51;;;;;;;9.63;5.13;;;0.10;99.90;;;;;;5090267;28;20374;-48
2021/03/06 00:34:16;;;;;;;11.38;5.13;;;0.00;99.90;;;;;;5090988;28;20747;-52
2021/03/06 00:36:42;;;;;;;9.03;4.97;;;3.00;99.90;;;;;;5090478;28;20459;-53
2021/03/06 00:39:08;;;;;;;10.13;5.00;;;0.50;99.90;;;;;;5090575;28;20436;-48
2021/03/06 00:41:34;;;;;;;10.57;4.87;;;2.90;99.90;;;;;;5072665;28;20733;-48
2021/03/06 00:44:00;;;;;;;11.20;5.30;;;2.20;99.90;;;;;;5089329;28;20485;-48
2021/03/06 00:46:26;;;;;;;11.02;5.20;;;0.20;99.90;;;;;;5090680;28;20465;-48
2021/03/06 00:48:52;;;;;;;10.93;5.20;;;0.10;99.90;;;;;;5089466;28;20386;-48
2021/03/06 00:51:19;;;;;;;11.30;5.30;;;2.40;99.90;;;;;;5090758;28;20859;-48
2021/03/06 00:53:45;;;;;;;9.98;4.93;;;3.00;99.90;;;;;;5090300;28;20381;-54
2021/03/06 00:56:11;;;;;;;11.48;5.90;;;0.20;99.90;;;;;;5090860;28;20374;-47
2021/03/06 00:58:36;;;;;;;11.00;5.00;;;2.80;99.90;;;;;;5072382;28;20429;-48
2021/03/06 01:01:05;;;;;;;9.68;5.20;;;3.20;99.90;;;;;;5071848;28;20435;-48
2021/03/06 01:03:31;;;;;;;9.73;4.80;;;0.10;99.90;;;;;;5072431;28;20745;-48
2021/03/06 01:05:57;;;;;;;9.47;4.40;;;0.00;99.90;;;;;;5089384;28;20395;-48
2021/03/06 01:08:23;;;;;;;9.30;5.00;;;0.20;99.90;;;;;;5090470;28;20382;-47
2021/03/06 01:10:49;;;;;;;11.02;4.35;;;-0.20;99.90;;;;;;5089864;28;20532;-47
2021/03/06 01:13:14;;;;;;;8.70;4.72;;;-0.50;99.90;;;;;;5072806;28;20882;-50
2021/03/06 01:15:40;;;;;;;10.60;4.72;;;2.60;99.90;;;;;;5091272;28;20378;-48
2021/03/06 01:18:07;;;;;;;12.32;5.50;;;-0.60;99.90;;;;;;5089866;28;20953;-48
2021/03/06 01:20:34;;;;;;;11.30;5.57;;;-0.70;99.90;;;;;;5090293;28;20867;-48
2021/03/06 01:23:00;;;;;;;12.82;5.03;;;1.60;99.90;;;;;;5089217;28;20757;-48
2021/03/06 01:25:26;;;;;;;10.93;4.78;;;0.50;99.90;;;;;;5072216;28;20378;-48
2021/03/06 01:27:52;;;;;;;10.52;5.10;;;0.80;99.90;;;;;;5089536;28;20412;-48
2021/03/06 01:30:19;;;;;;;10.35;4.82;;;-0.60;99.90;;;;;;5090174;28;20377;-48
2021/03/06 01:32:45;;;;;;;13.05;5.30;;;-0.70;99.90;;;;;;5089726;28;20382;-53
2021/03/06 01:35:12;;;;;;;10.52;5.35;;;-0.80;99.90;;;;;;5089558;28;20377;-49
2021/03/06 01:37:38;;;;;;;10.82;5.30;;;-0.80;99.90;;;;;;5084044;28;20410;-47
2021/03/06 01:40:10;;;;;;;9.23;4.70;;;2.50;99.90;;;;;;5083728;28;20418;-48
2021/03/06 01:42:36;;;;;;;10.93;5.10;;;-0.90;99.90;;;;;;5089683;28;20459;-48
2021/03/06 01:45:03;;;;;;;10.85;5.40;;;1.80;99.90;;;;;;5083575;28;20398;-48
2021/03/06 01:47:29;;;;;;;9.30;4.50;;;-1.10;99.90;;;;;;5089866;28;20402;-48
2021/03/06 01:49:55;;;;;;;9.90;4.80;;;-1.20;99.90;;;;;;5083464;28;20397;-49
2021/03/06 01:52:20;;;;;;;10.52;5.03;;;-1.30;99.90;;;;;;5089888;28;20782;-49
2021/03/06 01:54:46;;;;;;;8.55;4.50;;;1.30;99.90;;;;;;5083752;28;20400;-54
2021/03/06 01:57:12;;;;;;;11.38;5.20;;;1.60;99.90;;;;;;5089397;28;20847;-48
2021/03/06 01:59:38;;;;;;;9.88;4.60;;;-1.40;99.90;;;;;;5083662;28;20820;-48
2021/03/06 02:02:05;;;;;;;10.10;5.03;;;-1.30;99.90;;;;;;5088792;28;20443;-49
2021/03/06 02:04:33;;;;;;;11.13;5.40;;;-1.30;99.90;;;;;;5089582;28;20757;-48
2021/03/06 02:07:01;;;;;;;13.00;5.90;;;-0.60;99.90;;;;;;5089210;28;20378;-52
2021/03/06 02:09:27;;;;;;;10.43;5.32;;;-1.30;99.90;;;;;;5090017;28;20393;-48
2021/03/06 02:12:14;;;;;;;10.07;5.10;;;2.10;99.90;;;;;;5089189;28;20831;-48
2021/03/06 02:15:02;;;;;;;12.43;5.75;;;-1.30;99.90;;;;;;5089950;28;20390;-48
2021/03/06 02:17:36;;;;;;;11.98;5.70;;;-1.30;99.90;;;;;;5091898;28;20414;-48
2021/03/06 02:20:39;;;;;;;11.23;5.60;;;-1.30;99.90;;;;;;5092360;28;20400;-48
2021/03/06 02:23:35;;;;;;;10.75;5.70;;;-1.30;99.90;;;;;;5092664;28;20679;-48
2021/03/06 02:26:59;;;;;;;9.90;5.10;;;-1.30;99.90;;;;;;5092814;28;20397;-48
2021/03/06 02:29:46;;;;;;;10.27;5.50;;;-1.20;99.90;;;;;;4991478;28;20410;-48
2021/03/06 02:32:29;;;;;;;10.98;6.00;;;-1.00;99.90;;;;;;4991088;28;20446;-49
2021/03/06 02:35:02;;;;;;;10.50;5.60;;;-0.90;99.90;;;;;;5079105;28;20402;-48
2021/03/06 02:37:31;;;;;;;11.10;5.75;;;-1.00;99.90;;;;;;5092954;28;20436;-47
2021/03/06 02:39:57;;;;;;;10.70;4.87;;;-1.10;99.90;;;;;;5092275;28;20366;-46
2021/03/06 02:42:26;;;;;;;11.18;5.10;;;-1.00;99.90;;;;;;5093152;28;20409;-47
2021/03/06 02:44:52;;;;;;;9.90;5.25;;;-1.00;99.90;;;;;;5092195;28;20406;-48
2021/03/06 02:47:19;;;;;;;10.30;5.07;;;-0.90;99.90;;;;;;5093028;28;20374;-48
2021/03/06 02:49:55;;;;;;;11.70;5.15;;;2.30;99.90;;;;;;5092944;28;20379;-53
2021/03/06 02:52:21;;;;;;;10.07;6.03;;;1.40;99.90;;;;;;5092589;28;20492;-48
2021/03/06 02:54:48;;;;;;;8.90;4.30;;;-0.80;99.90;;;;;;5092231;28;20848;-53
2021/03/06 02:57:46;;;;;;;8.38;4.43;;;-0.70;99.90;;;;;;5092733;28;20509;-48
2021/03/06 03:00:55;;;;;;;10.48;5.40;;;-0.70;99.90;;;;;;5048969;28;20390;-47
2021/03/06 03:03:28;;;;;;;11.60;5.20;;;-0.70;99.90;;;;;;5053568;28;20889;-47
2021/03/06 03:06:16;;;;;;;8.68;4.90;;;-0.70;99.90;;;;;;5092223;28;20392;-47
2021/03/06 03:08:59;;;;;;;9.90;4.93;;;-0.70;99.90;;;;;;5092271;28;20381;-48
2021/03/06 03:11:33;;;;;;;10.73;5.40;;;-0.70;99.90;;;;;;5092379;28;20370;-48
2021/03/06 03:14:00;;;;;;;8.83;5.10;;;-0.30;99.90;;;;;;5073539;28;20383;-48
2021/03/06 03:16:44;;;;;;;8.20;5.00;;;-0.70;99.90;;;;;;5092354;28;20385;-47
2021/03/06 03:19:16;;;;;;;9.20;4.82;;;-0.70;99.90;;;;;;5073789;28;20417;-47
2021/03/06 03:21:48;;;;;;;8.90;4.95;;;-0.70;99.90;;;;;;5092345;28;20385;-49
2021/03/06 03:24:22;;;;;;;10.00;4.90;;;-0.70;99.90;;;;;;5092407;28;20836;-48
2021/03/06 03:26:50;;;;;;;10.40;5.37;;;-0.70;99.90;;;;;;5091482;28;20382;-54
2021/03/06 03:29:16;;;;;;;9.95;5.10;;;-0.60;99.90;;;;;;5091480;28;20378;-48
2021/03/06 03:31:49;;;;;;;9.40;4.20;;;1.60;99.90;;;;;;5092253;28;20374;-48
2021/03/06 03:34:20;;;;;;;8.88;4.45;;;2.00;99.90;;;;;;5091803;28;20820;-47
2021/03/06 03:36:48;;;;;;;9.55;4.75;;;-0.70;99.90;;;;;;5091501;28;20409;-53
2021/03/06 03:39:14;;;;;;;10.02;5.00;;;-0.80;99.90;;;;;;5091779;28;20971;-48
2021/03/06 03:41:40;;;;;;;8.10;4.78;;;-0.80;99.90;;;;;;5091850;28;20378;-48
2021/03/06 03:44:07;;;;;;;9.13;4.70;;;-0.80;99.90;;;;;;5091160;28;20464;-48
2021/03/06 03:46:34;;;;;;;8.50;4.70;;;-0.80;99.90;;;;;;5090882;28;20418;-48
2021/03/06 03:49:04;;;;;;;10.70;5.37;;;-0.80;99.90;;;;;;5090812;28;20486;-47
2021/03/06 03:51:33;;;;;;;9.07;5.28;;;-0.70;99.90;;;;;;5091636;28;20378;-48
2021/03/06 03:53:59;;;;;;;9.60;4.80;;;-0.80;99.90;;;;;;5090934;28;20766;-49
2021/03/06 03:56:26;;;;;;;10.30;5.70;;;-0.90;99.90;;;;;;5091629;28;20377;-48
2021/03/06 03:58:51;;;;;;;9.85;5.10;;;-0.90;99.90;;;;;;5090860;28;20732;-48
2021/03/06 04:01:17;;;;;;;11.63;5.93;;;-1.00;99.90;;;;;;5085780;28;20378;-51
2021/03/06 04:03:43;;;;;;;10.20;5.00;;;-1.00;99.90;;;;;;5090763;28;20738;-48
2021/03/06 04:06:09;;;;;;;10.18;5.30;;;-1.00;99.90;;;;;;5084171;28;20394;-48
2021/03/06 04:08:34;;;;;;;9.70;4.88;;;-1.00;99.90;;;;;;5091327;28;20394;-47
2021/03/06 04:11:01;;;;;;;9.00;4.90;;;-1.00;99.90;;;;;;5090390;28;20435;-49
2021/03/06 04:13:26;;;;;;;9.57;5.03;;;-1.00;99.90;;;;;;5085966;28;20394;-47
2021/03/06 04:15:52;;;;;;;11.82;4.78;;;-1.00;99.90;;;;;;5090493;28;20473;-48
2021/03/06 04:18:17;;;;;;;9.88;4.28;;;-1.00;99.90;;;;;;5073061;28;20436;-48
2021/03/06 04:20:43;;;;;;;8.73;4.60;;;0.80;99.90;;;;;;5085506;28;20522;-47
2021/03/06 04:23:09;;;;;;;9.60;5.20;;;-0.90;99.90;;;;;;5089625;28;20378;-47
2021/03/06 04:25:34;;;;;;;8.50;4.60;;;-0.90;99.90;;;;;;5085241;28;20502;-48
2021/03/06 04:28:00;;;;;;;10.07;4.63;;;-0.90;99.90;;;;;;5090178;28;20870;-48
2021/03/06 04:30:26;;;;;;;9.88;4.60;;;-0.90;99.90;;;;;;5070896;28;20409;-49
2021/03/06 04:32:52;;;;;;;10.77;5.07;;;-0.90;99.90;;;;;;5069942;28;20376;-48
2021/03/06 04:35:17;;;;;;;10.50;5.25;;;2.40;99.90;;;;;;5073069;28;20392;-49
2021/03/06 04:37:43;;;;;;;8.00;4.67;;;-0.90;99.90;;;;;;5070445;28;20419;-48
2021/03/06 04:40:11;;;;;;;9.20;4.73;;;-0.90;99.90;;;;;;5072210;28;20398;-48
2021/03/06 04:42:37;;;;;;;9.27;4.93;;;-1.00;99.90;;;;;;5070994;28;20389;-49
2021/03/06 04:45:04;;;;;;;11.40;6.00;;;-0.90;99.90;;;;;;5084422;28;20390;-49
2021/03/06 04:47:30;;;;;;;12.80;6.40;;;-1.00;99.90;;;;;;5090291;28;20382;-48
2021/03/06 04:49:55;;;;;;;14.30;6.80;;;-1.00;99.90;;;;;;5090377;28;20382;-49
2021/03/06 04:52:21;;;;;;;16.20;7.60;;;-1.00;99.90;;;;;;5084891;28;20416;-47
2021/03/06 04:54:47;;;;;;;12.85;7.05;;;2.30;99.90;;;;;;5087316;28;20408;-52
2021/03/06 04:57:13;;;;;;;10.75;6.00;;;-1.10;99.90;;;;;;5087324;28;20432;-48
2021/03/06 04:59:40;;;;;;;9.70;5.60;;;2.10;99.90;;;;;;5090644;28;20400;-48
2021/03/06 05:02:05;;;;;;;12.02;5.97;;;-1.10;99.90;;;;;;5072784;28;20402;-47
2021/03/06 05:04:31;;;;;;;10.50;5.90;;;-1.10;99.90;;;;;;5068941;28;20474;-48
2021/03/06 05:06:57;;;;;;;11.75;5.75;;;-1.10;99.90;;;;;;5072035;28;20431;-47
2021/03/06 05:09:23;;;;;;;10.98;5.80;;;-1.10;99.90;;;;;;5070182;28;20482;-47
2021/03/06 05:11:49;;;;;;;11.07;5.30;;;-1.10;99.90;;;;;;5072067;28;20928;-53
2021/03/06 05:14:14;;;;;;;10.60;5.88;;;-1.20;99.90;;;;;;5069845;28;20376;-48
2021/03/06 05:16:40;;;;;;;9.33;5.30;;;-1.20;99.90;;;;;;5051797;28;20403;-50
2021/03/06 05:19:05;;;;;;;12.30;5.40;;;1.10;99.90;;;;;;5071824;28;20451;-48
2021/03/06 05:21:31;;;;;;;10.02;5.65;;;-1.20;99.90;;;;;;5069748;28;20387;-48
2021/03/06 05:23:57;;;;;;;10.70;5.25;;;-1.30;99.90;;;;;;5072123;28;20410;-49
2021/03/06 05:26:23;;;;;;;8.57;4.90;;;-1.10;99.90;;;;;;5069701;28;20456;-47
2021/03/06 05:28:48;;;;;;;10.20;5.23;;;-1.20;99.90;;;;;;5069323;28;20474;-48
2021/03/06 05:31:14;;;;;;;10.80;5.90;;;-1.20;99.90;;;;;;5072605;28;20403;-48
2021/03/06 05:33:39;;;;;;;9.73;5.20;;;-1.20;99.90;;;;;;5051442;28;20406;-51
2021/03/06 05:36:05;;;;;;;9.35;5.15;;;1.60;99.90;;;;;;5072049;28;20392;-48
2021/03/06 05:38:31;;;;;;;8.70;5.47;;;-1.20;99.90;;;;;;5068745;28;20429;-47
2021/03/06 05:40:57;;;;;;;11.45;5.70;;;-1.20;99.90;;;;;;5068481;28;20380;-47
2021/03/06 05:43:23;;;;;;;11.55;6.30;;;-1.20;99.90;;;;;;5072432;28;20758;-47
2021/03/06 05:45:49;;;;;;;10.93;6.53;;;-1.30;99.90;;;;;;5072474;28;20390;-53
2021/03/06 05:48:18;;;;;;;12.30;7.45;;;-1.30;99.90;;;;;;5068967;28;20407;-48
2021/03/06 05:50:45;;;;;;;13.33;6.40;;;-1.30;99.90;;;;;;5072894;28;20394;-50
2021/03/06 05:53:13;;;;;;;10.98;5.97;;;-1.30;99.90;;;;;;5071944;28;20419;-48
2021/03/06 05:55:42;;;;;;;10.65;5.70;;;-1.30;99.90;;;;;;5076512;28;20395;-47
2021/03/06 05:58:08;;;;;;;9.57;5.95;;;2.00;99.90;;;;;;5056686;28;20413;-47
2021/03/06 06:00:35;;;;;;;10.10;6.13;;;-1.40;99.90;;;;;;5093614;28;20386;-47
2021/03/06 06:03:01;;;;;;;11.65;7.10;;;-1.30;99.90;;;;;;5089087;28;20449;-48
2021/03/06 06:05:26;;;;;;;11.48;7.57;;;-1.30;99.90;;;;;;5092694;28;20398;-49
2021/03/06 06:07:54;;;;;;;10.90;6.32;;;-1.30;99.90;;;;;;5092862;28;20439;-50
2021/03/06 06:10:20;;;;;;;9.27;5.90;;;-1.30;99.90;;;;;;5089938;28;20421;-48
2021/03/06 06:12:46;;;;;;;10.43;6.30;;;-1.20;99.90;;;;;;5093602;28;20371;-47
2021/03/06 06:15:13;;;;;;;10.68;5.10;;;-1.20;99.90;;;;;;5089931;28;20897;-47
2021/03/06 06:17:39;;;;;;;9.50;5.23;;;-1.20;99.90;;;;;;5091489;28;20467;-49
2021/03/06 06:20:06;;;;;;;10.48;5.60;;;2.10;99.90;;;;;;5070333;28;20788;-48
2021/03/06 06:22:31;;;;;;;10.90;5.50;;;-1.10;99.90;;;;;;5091129;28;20410;-48
2021/03/06 06:24:57;;;;;;;10.98;5.90;;;-1.10;99.90;;;;;;5091799;28;20387;-47
2021/03/06 06:27:33;;;;;;;10.68;6.00;;;-1.00;99.90;;;;;;5090765;28;20398;-49
2021/03/06 06:30:01;;;;;;;9.10;5.63;;;-0.40;99.90;;;;;;5091577;28;20394;-47
2021/03/06 06:32:41;;;;;;;10.20;5.30;;;0.70;99.90;;;;;;5089641;28;20459;-48
2021/03/06 06:35:09;;;;;;;9.00;4.70;;;2.40;99.90;;;;;;5093832;28;20514;-48
2021/03/06 06:37:35;;;;;;;9.73;5.45;;;3.00;99.90;;;;;;5098556;28;20415;-49
2021/03/06 06:40:17;;;;;;;8.10;4.90;;;4.10;99.90;;;;;;5097347;28;20473;-49
2021/03/06 06:42:43;;;;;;;8.77;5.40;;;4.80;97.00;;;;;;5103586;28;20382;-50
2021/03/06 06:45:09;;;;;;;10.10;5.50;;;5.40;95.30;;;;;;5099891;28;20405;-48
2021/03/06 06:47:39;;;;;;;8.32;4.90;;;6.40;92.00;;;;;;5097416;28;20390;-48
2021/03/06 06:50:06;;;;;;;8.18;5.35;;;7.10;89.50;;;;;;5090000;28;20390;-48
2021/03/06 06:52:43;;;;;;;8.60;5.20;;;7.60;84.20;;;;;;5092294;28;20439;-48
2021/03/06 06:55:11;;;;;;;9.50;5.20;;;8.20;80.00;;;;;;5079347;28;20401;-48
2021/03/06 06:57:54;;;;;;;9.85;5.53;;;8.60;75.40;;;;;;5098044;28;20914;-51
2021/03/06 07:00:20;;;;;;;8.60;5.15;;;9.80;71.20;;;;;;5096470;28;20453;-49
2021/03/06 07:03:00;;;;;;;8.88;4.80;;;9.90;64.70;;;;;;5096671;28;20889;-49
2021/03/06 07:05:32;;;;;;;8.65;5.35;;;9.50;64.30;;;;;;5074995;28;20560;-48
2021/03/06 07:08:00;;;;;;;8.38;4.82;;;9.40;64.10;;;;;;5071318;28;20928;-48
2021/03/06 07:10:57;;;;;;;8.80;5.15;;;9.10;63.60;;;;;;5084627;28;20390;-48
2021/03/06 07:13:22;;;;;;;8.60;4.45;;;9.80;62.30;;;;;;5071426;28;20942;-49
2021/03/06 07:15:53;;;;;;;9.20;5.23;;;10.40;59.60;;;;;;5085884;28;20491;-49
2021/03/06 07:18:19;;;;;;;9.95;5.00;;;10.30;59.30;;;;;;5071192;28;20404;-48
2021/03/06 07:20:45;;;;;;;7.18;4.72;;;10.40;58.80;;;;;;5075279;28;20920;-50
2021/03/06 07:23:14;;;;;;;8.05;4.80;;;10.80;57.20;;;;;;5089898;28;20392;-48
2021/03/06 07:25:40;;;;;;;7.50;4.70;;;10.70;56.80;;;;;;5086107;28;20397;-48
2021/03/06 07:28:06;;;;;;;8.77;5.10;;;10.70;56.40;;;;;;5091121;28;20409;-48
2021/03/06 07:30:32;;;;;;;8.75;5.40;;;10.50;56.40;;;;;;5086570;28;20471;-49
2021/03/06 07:33:03;;;;;;;9.10;5.53;;;10.30;56.90;;;;;;5091046;28;20863;-49
2021/03/06 07:35:36;;;;;;;8.52;5.30;;;10.10;56.20;;;;;;5086466;28;20459;-52
2021/03/06 07:38:08;;;;;;;8.13;4.40;;;10.10;56.20;;;;;;5089236;28;20509;-49
2021/03/06 07:40:56;;;;;;;8.98;5.00;;;10.30;56.50;;;;;;5091128;28;20916;-49
2021/03/06 07:43:27;;;;;;;8.32;5.40;;;10.60;55.50;;;;;;5084962;28;20397;-49
2021/03/06 07:45:53;;;;;;;7.45;5.10;;;11.10;55.50;;;;;;5081138;28;20419;-56
2021/03/06 07:48:19;;;;;;;10.23;5.30;;;12.10;53.40;;;;;;5071724;28;20380;-51
2021/03/06 07:50:52;;;;;;;9.73;5.93;;;12.60;52.80;;;;;;5083367;28;20964;-51
2021/03/06 07:53:19;;;;;;;8.40;5.50;;;13.30;51.70;;;;;;5091663;28;20367;-51
2021/03/06 07:55:46;;;;;;;7.88;5.30;;;13.90;49.20;;;;;;5079275;28;20753;-49
2021/03/06 07:58:13;;;;;;;8.50;5.00;;;14.50;46.40;;;;;;5072328;28;20407;-54
2021/03/06 08:00:58;;;;;;;8.43;4.50;;;14.50;46.50;;;;;;5085186;28;20386;-60
2021/03/06 08:03:27;;;;;;;8.07;4.63;;;15.20;44.00;;;;;;5083549;28;20390;-54
2021/03/06 08:05:55;;;;;;;7.45;4.70;;;15.90;42.50;;;;;;5089777;28;20386;-62
2021/03/06 08:08:34;;;;;;;7.37;4.60;;;16.60;41.50;;;;;;5085752;28;20401;-55
2021/03/06 08:11:07;;;;;;;7.70;4.90;;;16.40;40.20;;;;;;5086549;28;20374;-54
2021/03/06 08:13:46;;;;;;;7.90;5.20;;;15.60;41.10;;;;;;5089476;28;20411;-58
2021/03/06 08:16:21;;;;;;;8.10;5.20;;;15.70;40.20;;;;;;5083868;28;20640;-54
2021/03/06 08:19:13;;;;;;;7.55;4.80;;;15.60;39.20;;;;;;5090213;28;20786;-54
2021/03/06 08:21:47;;;;;;;9.32;5.60;;;14.50;39.30;;;;;;5056488;28;20401;-54
2021/03/06 08:24:19;;;;;;;7.28;4.50;;;13.90;40.80;;;;;;5083915;28;20436;-54
2021/03/06 08:27:02;;;;;;;7.75;5.07;;;13.60;41.90;;;;;;5088865;28;20405;-54
2021/03/06 08:29:28;;;;;;;8.75;5.45;;;13.50;41.50;;;;;;5085473;28;20472;-59
2021/03/06 08:32:15;;;;;;;9.33;5.10;;;13.40;42.20;;;;;;5086033;28;20800;-63
2021/03/06 08:34:50;;;;;;;8.30;4.85;;;14.10;42.00;;;;;;5073418;28;20450;-54
2021/03/06 08:37:16;;;;;;;8.73;5.30;;;14.70;42.50;;;;;;5068869;28;20403;-57
2021/03/06 08:39:46;;;;;;;10.02;4.82;;;15.70;40.80;;;;;;5079741;28;20446;-55
2021/03/06 08:42:17;;;;;;;8.48;4.70;;;16.30;39.90;;;;;;5089166;28;20426;-54
2021/03/06 08:44:43;;;;;;;8.93;5.07;;;16.40;39.00;;;;;;5090556;28;20394;-54
2021/03/06 08:47:10;;;;;;;7.22;4.72;;;16.60;39.70;;;;;;5051758;28;20763;-55
2021/03/06 08:49:36;;;;;;;9.52;4.95;;;16.10;39.80;;;;;;5080195;28;20909;-54
2021/03/06 08:52:03;;;;;;;8.20;5.38;;;16.20;39.10;;;;;;5088364;28;20491;-54
2021/03/06 08:54:39;;;;;;;7.82;5.15;;;16.10;39.50;;;;;;5085151;28;20399;-54
2021/03/06 08:57:05;;;;;;;9.00;5.07;;;16.30;38.80;;;;;;5081404;28;20410;-55
2021/03/06 08:59:38;;;;;;;7.78;5.22;;;15.90;38.70;;;;;;5082630;28;20410;-59
2021/03/06 09:02:28;;;;;;;9.80;5.50;;;15.20;38.50;;;;;;5083915;28;20450;-60
2021/03/06 09:05:08;;;;;;;8.10;4.90;;;14.50;40.00;;;;;;5087018;28;20400;-65
2021/03/06 09:07:36;;;;;;;8.63;5.28;;;14.00;41.00;;;;;;5069005;28;20899;-59
2021/03/06 09:10:25;;;;;;;10.35;5.18;;;13.90;40.50;;;;;;5090888;28;20408;-60
2021/03/06 09:12:57;;;;;;;7.93;4.63;;;13.80;41.10;;;;;;5094717;28;20406;-58
2021/03/06 09:15:50;;;;;;;7.93;4.50;;;13.30;42.10;;;;;;5094881;28;20480;-59
2021/03/06 09:18:17;;;;;;;8.65;4.50;;;13.50;42.60;;;;;;5075459;28;20405;-57
2021/03/06 09:20:56;;;;;;;8.32;4.75;;;13.80;43.40;;;;;;5095382;28;20387;-58
2021/03/06 09:23:25;;;;;;;9.07;5.00;;;14.10;41.70;;;;;;5083943;28;20402;-55
2021/03/06 09:25:52;;;;;;;9.07;5.07;;;14.30;42.20;;;;;;5090387;28;20374;-62
2021/03/06 09:28:22;;;;;;;9.48;5.00;;;14.90;41.20;;;;;;5085056;28;20402;-54
2021/03/06 09:30:48;;;;;;;8.02;4.70;;;14.90;41.20;;;;;;5086512;28;20451;-54
2021/03/06 09:33:37;;;;;;;10.13;5.30;;;14.50;39.50;;;;;;5081760;28;20575;-55
2021/03/06 09:36:11;;;;;;;7.68;4.90;;;14.10;41.50;;;;;;5093325;28;20384;-53
2021/03/06 09:38:48;;;;;;;8.03;4.83;;;14.60;41.10;;;;;;5094629;28;20745;-53
2021/03/06 09:41:19;;;;;;;9.07;4.40;;;14.80;40.70;;;;;;5091657;28;20459;-54
2021/03/06 09:43:52;;;;;;;9.63;4.97;;;14.70;39.10;;;;;;5077033;28;20407;-55
2021/03/06 09:46:27;;;;;;;10.05;5.47;;;13.70;40.70;;;;;;5086977;28;20384;-56
2021/03/06 09:48:57;;;;;;;7.43;4.65;;;14.20;41.50;;;;;;5069762;28;20469;-62
2021/03/06 09:51:24;;;;;;;8.55;5.15;;;14.80;41.20;;;;;;5082612;28;20586;-57
2021/03/06 09:54:00;;;;;;;7.73;4.87;;;14.00;38.90;;;;;;5093433;28;20380;-55
2021/03/06 09:56:27;;;;;;;9.20;4.70;;;13.90;41.50;;;;;;5090901;28;20468;-55
2021/03/06 09:59:04;;;;;;;9.18;5.38;;;14.30;40.70;;;;;;5071216;28;20900;-61
2021/03/06 10:01:34;;;;;;;11.43;6.75;;;14.50;40.30;;;;;;5091316;28;21091;-55
2021/03/06 10:04:11;;;;;;;9.30;5.65;;;14.20;40.20;;;;;;5077138;28;20752;-55
2021/03/06 10:06:40;;;;;;;10.70;5.60;;;14.20;39.80;;;;;;5087305;28;20729;-54
2021/03/06 10:09:08;;;;;;;9.60;5.40;;;14.60;40.00;;;;;;5094496;28;20380;-55
2021/03/06 10:11:45;;;;;;;8.80;4.90;;;15.40;39.90;;;;;;5089168;28;20400;-56
2021/03/06 10:14:16;;;;;;;8.40;5.25;;;15.30;38.70;;;;;;5085450;28;20406;-54
2021/03/06 10:16:57;;;;;;;7.93;5.05;;;15.70;37.30;;;;;;5094463;28;20373;-54
2021/03/06 10:19:25;;;;;;;7.40;4.53;;;15.50;38.10;;;;;;5093766;28;20419;-54
2021/03/06 10:22:10;;;;;;;7.10;4.40;;;15.50;38.20;;;;;;5091478;28;20904;-53
2021/03/06 10:24:54;;;;;;;8.63;4.40;;;15.40;36.60;;;;;;5097328;28;20384;-55
2021/03/06 10:27:36;;;;;;;7.50;4.60;;;15.60;37.40;;;;;;5091539;28;20394;-55
2021/03/06 10:30:20;;;;;;;8.20;4.78;;;15.00;36.60;;;;;;5084742;28;20419;-54
2021/03/06 10:32:52;;;;;;;7.93;4.50;;;15.10;37.90;;;;;;5090294;28;20883;-54
2021/03/06 10:35:43;;;;;;;8.70;4.60;;;15.30;37.50;;;;;;5071184;28;20759;-53
2021/03/06 10:38:11;;;;;;;8.10;4.53;;;14.60;38.00;;;;;;5096451;28;20440;-56
2021/03/06 10:40:44;;;;;;;9.40;5.20;;;14.80;37.90;;;;;;5081142;28;20398;-54
2021/03/06 10:43:11;;;;;;;7.90;4.43;;;15.20;37.90;;;;;;5092968;28;20409;-54
2021/03/06 10:45:40;;;;;;;8.60;4.60;;;14.90;37.30;;;;;;5083430;28;20470;-54
2021/03/06 10:48:07;;;;;;;8.40;5.15;;;15.60;37.50;;;;;;5097006;28;20387;-55
2021/03/06 10:50:39;;;;;;;7.60;4.47;;;15.30;37.00;;;;;;5098688;28;20408;-54
2021/03/06 10:53:19;;;;;;;9.18;5.10;;;14.60;37.60;;;;;;5095313;28;20416;-57
2021/03/06 10:55:46;;;;;;;7.83;4.50;;;13.30;38.60;;;;;;5097761;28;20378;-54
2021/03/06 10:58:12;;;;;;;7.70;4.40;;;12.20;39.10;;;;;;5097726;28;20882;-54
2021/03/06 11:00:40;;;;;;;8.63;4.78;;;12.40;40.20;;;;;;5094660;28;20398;-56
2021/03/06 11:03:07;;;;;;;11.02;5.63;;;12.80;40.50;;;;;;5091450;28;20422;-56
2021/03/06 11:05:33;;;;;;;8.13;4.32;;;13.50;38.70;;;;;;5104566;28;20373;-57
2021/03/06 11:08:15;;;;;;;9.43;4.15;;;13.50;37.00;;;;;;5098542;28;20388;-53
2021/03/06 11:10:43;;;;;;;7.20;3.80;;;13.20;37.40;;;;;;5076647;28;20434;-53
2021/03/06 11:13:09;;;;;;;7.28;3.53;;;13.20;37.60;;;;;;5093229;28;20388;-54
2021/03/06 11:15:35;;;;;;;6.05;3.40;;;13.10;37.20;;;;;;5095284;28;20386;-53
2021/03/06 11:18:02;;;;;;;6.30;3.40;;;13.30;37.60;;;;;;5090775;28;20420;-53
2021/03/06 11:20:33;;;;;;;7.68;3.83;;;12.90;36.00;;;;;;5085349;28;20390;-55
2021/03/06 11:23:03;;;;;;;9.32;3.90;;;13.00;35.60;;;;;;5085557;28;20488;-55
2021/03/06 11:25:29;;;;;;;7.95;3.90;;;13.10;36.30;;;;;;5085195;28;20481;-55
2021/03/06 11:28:00;;;;;;;7.93;3.50;;;13.60;35.40;;;;;;5088670;28;20416;-62
2021/03/06 11:30:32;;;;;;;6.95;3.70;;;12.90;35.10;;;;;;5074944;28;20392;-54
2021/03/06 11:32:59;;;;;;;7.15;3.80;;;12.30;35.30;;;;;;5083850;28;20412;-62
2021/03/06 11:35:26;;;;;;;7.40;3.60;;;11.70;37.10;;;;;;5085712;28;20848;-53
2021/03/06 11:37:52;;;;;;;6.50;3.63;;;11.10;37.20;;;;;;5090921;28;20500;-52
2021/03/06 11:40:23;;;;;;;7.00;3.70;;;10.80;38.70;;;;;;5071885;28;22364;-56
2021/03/06 11:42:49;;;;;;;6.50;3.60;;;10.30;39.90;;;;;;5084579;28;20545;-54
2021/03/06 11:45:17;;;;;;;9.20;4.00;;;9.90;41.50;;;;;;5084397;28;20391;-59
2021/03/06 11:47:43;;;;;;;9.30;4.65;;;10.00;42.30;;;;;;5089705;28;20898;-53
2021/03/06 11:50:11;;;;;;;8.03;4.03;;;10.10;43.00;;;;;;5085370;28;20411;-54
2021/03/06 11:52:37;;;;;;;8.75;4.57;;;9.90;42.90;;;;;;5071894;28;20397;-53
2021/03/06 11:55:07;;;;;;;9.02;4.47;;;9.70;43.20;;;;;;5088476;28;20377;-52
2021/03/06 11:57:33;;;;;;;8.13;3.80;;;9.90;44.70;;;;;;5072651;28;20813;-59
2021/03/06 11:59:59;;;;;;;8.00;3.90;;;10.30;42.20;;;;;;5088600;28;20473;-56
2021/03/06 12:02:25;;;;;;;9.95;6.15;;;10.30;41.90;;;;;;5086740;28;20496;-53
2021/03/06 12:04:50;;;;;;;7.40;3.97;;;10.20;42.10;;;;;;5087389;28;20914;-57
2021/03/06 12:07:16;;;;;;;6.18;3.30;;;10.30;41.30;;;;;;5076040;28;20515;-54
2021/03/06 12:09:42;;;;;;;6.85;3.60;;;10.10;40.70;;;;;;5103140;28;20737;-54
2021/03/06 12:12:08;;;;;;;8.25;3.50;;;10.20;41.50;;;;;;5085096;28;20424;-53
2021/03/06 12:14:34;;;;;;;6.60;3.30;;;9.60;42.30;;;;;;5101591;28;20385;-53
2021/03/06 12:17:00;;;;;;;6.60;3.47;;;9.20;41.20;;;;;;5095997;28;20484;-53
2021/03/06 12:19:26;;;;;;;6.30;3.33;;;9.50;42.30;;;;;;5098330;28;20404;-54
2021/03/06 12:21:53;;;;;;;6.40;3.30;;;9.50;41.50;;;;;;5077440;28;20481;-54
2021/03/06 12:24:18;;;;;;;7.30;3.40;;;9.50;41.90;;;;;;5085041;28;20378;-54
2021/03/06 12:26:44;;;;;;;6.10;3.30;;;9.70;42.20;;;;;;5089488;28;20404;-54
2021/03/06 12:29:09;;;;;;;6.40;3.40;;;9.60;41.90;;;;;;5081686;28;20879;-53
2021/03/06 12:31:35;;;;;;;6.50;3.50;;;9.50;40.50;;;;;;5088357;28;20417;-54
2021/03/06 12:34:01;;;;;;;5.80;3.00;;;9.60;40.80;;;;;;5073632;28;20411;-54
2021/03/06 12:36:26;;;;;;;5.15;2.83;;;9.70;39.70;;;;;;5088276;28;20382;-54
2021/03/06 12:38:52;;;;;;;8.47;3.13;;;9.90;39.70;;;;;;5086489;28;20413;-58
2021/03/06 12:41:18;;;;;;;6.65;3.22;;;10.00;39.10;;;;;;5087607;28;20976;-56
2021/03/06 12:43:43;;;;;;;8.10;2.90;;;9.70;39.20;;;;;;5088063;28;20378;-54
2021/03/06 12:46:09;;;;;;;5.95;3.00;;;9.40;39.10;;;;;;5081569;28;20382;-54
2021/03/06 12:48:35;;;;;;;7.30;3.10;;;9.00;40.10;;;;;;5089890;28;20743;-52
2021/03/06 12:51:01;;;;;;;6.73;3.03;;;9.10;40.00;;;;;;5083870;28;20788;-53
2021/03/06 12:53:26;;;;;;;6.20;3.13;;;9.40;40.70;;;;;;5084433;28;20406;-52
2021/03/06 12:55:52;;;;;;;7.30;3.22;;;9.60;40.50;;;;;;5089207;28;20389;-53
2021/03/06 12:58:18;;;;;;;7.50;3.23;;;9.80;41.10;;;;;;5084846;28;20424;-62